sensor_id;sensor_type;location;lat;lon;timestamp;P1;durP1;ratioP1;P2;durP2;ratioP2
10947;SDS011;5526;42.070;24.752;2022-12-18T00:01:24;40.25;;;33.13;;
10947;SDS011;5526;42.070;24.752;2022-12-18T00:03:54;44.72;;;34.85;;
10947;SDS011;5526;42.070;24.752;2022-12-18T00:06:23;49.13;;;40.00;;
10947;SDS011;5526;42.070;24.752;2022-12-18T00:08:52;41.67;;;35.10;;
10947;SDS011;5526;42.070;24.752;2022-12-18T00:11:24;40.97;;;32.15;;
10947;SDS011;5526;42.070;24.752;2022-12-18T00:13:53;30.90;;;25.27;;
10947;SDS011;5526;42.070;24.752;2022-12-18T00:16:24;25.70;;;22.88;;
10947;SDS011;5526;42.070;24.752;2022-12-18T00:18:53;73.10;;;54.60;;
10947;SDS011;5526;42.070;24.752;2022-12-18T00:21:22;41.83;;;32.85;;
10947;SDS011;5526;42.070;24.752;2022-12-18T00:23:50;42.25;;;33.75;;
10947;SDS011;5526;42.070;24.752;2022-12-18T00:26:19;42.25;;;33.35;;
10947;SDS011;5526;42.070;24.752;2022-12-18T00:28:51;36.92;;;30.15;;
10947;SDS011;5526;42.070;24.752;2022-12-18T00:31:21;36.38;;;29.15;;
10947;SDS011;5526;42.070;24.752;2022-12-18T00:33:50;34.47;;;28.80;;
10947;SDS011;5526;42.070;24.752;2022-12-18T00:36:20;47.13;;;35.28;;
10947;SDS011;5526;42.070;24.752;2022-12-18T00:38:50;60.10;;;42.00;;
10947;SDS011;5526;42.070;24.752;2022-12-18T00:41:18;45.95;;;36.05;;
10947;SDS011;5526;42.070;24.752;2022-12-18T00:44:01;42.30;;;34.00;;
10947;SDS011;5526;42.070;24.752;2022-12-18T00:46:29;38.88;;;31.23;;
10947;SDS011;5526;42.070;24.752;2022-12-18T00:48:57;35.35;;;30.55;;
10947;SDS011;5526;42.070;24.752;2022-12-18T00:51:25;36.58;;;30.25;;
10947;SDS011;5526;42.070;24.752;2022-12-18T00:53:53;32.90;;;27.50;;
10947;SDS011;5526;42.070;24.752;2022-12-18T00:56:21;36.10;;;27.55;;
10947;SDS011;5526;42.070;24.752;2022-12-18T00:58:49;29.75;;;26.65;;
10947;SDS011;5526;42.070;24.752;2022-12-18T01:01:19;28.65;;;25.40;;
10947;SDS011;5526;42.070;24.752;2022-12-18T01:03:47;37.08;;;28.63;;
10947;SDS011;5526;42.070;24.752;2022-12-18T01:06:15;34.80;;;29.75;;
10947;SDS011;5526;42.070;24.752;2022-12-18T01:08:43;36.05;;;29.55;;
10947;SDS011;5526;42.070;24.752;2022-12-18T01:11:12;33.70;;;28.98;;
10947;SDS011;5526;42.070;24.752;2022-12-18T01:13:41;31.92;;;26.40;;
10947;SDS011;5526;42.070;24.752;2022-12-18T01:16:10;31.08;;;27.25;;
10947;SDS011;5526;42.070;24.752;2022-12-18T01:18:40;27.58;;;23.85;;
10947;SDS011;5526;42.070;24.752;2022-12-18T01:21:09;23.92;;;20.73;;
10947;SDS011;5526;42.070;24.752;2022-12-18T01:23:38;24.40;;;20.15;;
10947;SDS011;5526;42.070;24.752;2022-12-18T01:26:06;19.67;;;17.63;;
10947;SDS011;5526;42.070;24.752;2022-12-18T01:28:34;18.70;;;16.35;;
10947;SDS011;5526;42.070;24.752;2022-12-18T01:31:12;15.98;;;13.57;;
10947;SDS011;5526;42.070;24.752;2022-12-18T01:33:43;17.55;;;14.18;;
10947;SDS011;5526;42.070;24.752;2022-12-18T01:36:15;194.77;;;128.05;;
10947;SDS011;5526;42.070;24.752;2022-12-18T01:38:45;27.33;;;23.55;;
10947;SDS011;5526;42.070;24.752;2022-12-18T01:41:13;18.48;;;16.55;;
10947;SDS011;5526;42.070;24.752;2022-12-18T01:43:42;17.55;;;15.65;;
10947;SDS011;5526;42.070;24.752;2022-12-18T01:46:11;16.63;;;14.48;;
10947;SDS011;5526;42.070;24.752;2022-12-18T01:48:39;18.63;;;16.73;;
10947;SDS011;5526;42.070;24.752;2022-12-18T01:51:10;19.83;;;17.17;;
10947;SDS011;5526;42.070;24.752;2022-12-18T01:53:40;17.17;;;15.38;;
10947;SDS011;5526;42.070;24.752;2022-12-18T01:56:11;17.05;;;14.35;;
10947;SDS011;5526;42.070;24.752;2022-12-18T01:58:43;16.17;;;14.40;;
10947;SDS011;5526;42.070;24.752;2022-12-18T02:01:16;15.75;;;14.25;;
10947;SDS011;5526;42.070;24.752;2022-12-18T02:03:44;15.00;;;13.50;;
10947;SDS011;5526;42.070;24.752;2022-12-18T02:06:15;15.15;;;13.65;;
10947;SDS011;5526;42.070;24.752;2022-12-18T02:08:56;15.68;;;13.27;;
10947;SDS011;5526;42.070;24.752;2022-12-18T02:11:33;14.38;;;12.75;;
10947;SDS011;5526;42.070;24.752;2022-12-18T02:14:10;13.35;;;12.05;;
10947;SDS011;5526;42.070;24.752;2022-12-18T02:16:46;13.38;;;11.98;;
10947;SDS011;5526;42.070;24.752;2022-12-18T02:19:24;14.48;;;13.07;;
10947;SDS011;5526;42.070;24.752;2022-12-18T02:22:11;13.60;;;12.23;;
10947;SDS011;5526;42.070;24.752;2022-12-18T02:24:51;13.00;;;11.65;;
10947;SDS011;5526;42.070;24.752;2022-12-18T02:27:28;12.20;;;10.95;;
10947;SDS011;5526;42.070;24.752;2022-12-18T02:29:59;11.68;;;10.48;;
10947;SDS011;5526;42.070;24.752;2022-12-18T02:32:29;14.10;;;12.20;;
10947;SDS011;5526;42.070;24.752;2022-12-18T02:35:01;13.77;;;12.48;;
10947;SDS011;5526;42.070;24.752;2022-12-18T02:37:31;15.48;;;13.35;;
10947;SDS011;5526;42.070;24.752;2022-12-18T02:40:01;17.80;;;16.15;;
10947;SDS011;5526;42.070;24.752;2022-12-18T02:42:33;16.77;;;15.10;;
10947;SDS011;5526;42.070;24.752;2022-12-18T02:45:01;15.50;;;13.68;;
10947;SDS011;5526;42.070;24.752;2022-12-18T02:47:30;15.57;;;13.95;;
10947;SDS011;5526;42.070;24.752;2022-12-18T02:50:02;16.45;;;14.43;;
10947;SDS011;5526;42.070;24.752;2022-12-18T02:52:35;15.88;;;14.13;;
10947;SDS011;5526;42.070;24.752;2022-12-18T02:55:13;16.05;;;14.35;;
10947;SDS011;5526;42.070;24.752;2022-12-18T02:57:52;15.13;;;13.63;;
10947;SDS011;5526;42.070;24.752;2022-12-18T03:00:22;15.15;;;13.55;;
10947;SDS011;5526;42.070;24.752;2022-12-18T03:02:54;15.00;;;13.50;;
10947;SDS011;5526;42.070;24.752;2022-12-18T03:05:28;15.05;;;13.60;;
10947;SDS011;5526;42.070;24.752;2022-12-18T03:08:02;16.15;;;14.45;;
10947;SDS011;5526;42.070;24.752;2022-12-18T03:10:34;15.98;;;14.38;;
10947;SDS011;5526;42.070;24.752;2022-12-18T03:13:08;16.80;;;15.10;;
10947;SDS011;5526;42.070;24.752;2022-12-18T03:15:41;16.83;;;15.13;;
10947;SDS011;5526;42.070;24.752;2022-12-18T03:18:13;18.52;;;16.52;;
10947;SDS011;5526;42.070;24.752;2022-12-18T03:20:46;17.15;;;15.32;;
10947;SDS011;5526;42.070;24.752;2022-12-18T03:23:16;16.70;;;14.75;;
10947;SDS011;5526;42.070;24.752;2022-12-18T03:25:48;16.10;;;14.57;;
10947;SDS011;5526;42.070;24.752;2022-12-18T03:28:21;16.65;;;15.00;;
10947;SDS011;5526;42.070;24.752;2022-12-18T03:30:51;16.95;;;15.10;;
10947;SDS011;5526;42.070;24.752;2022-12-18T03:33:25;16.70;;;15.18;;
10947;SDS011;5526;42.070;24.752;2022-12-18T03:35:56;16.25;;;14.65;;
10947;SDS011;5526;42.070;24.752;2022-12-18T03:38:24;14.32;;;12.90;;
10947;SDS011;5526;42.070;24.752;2022-12-18T03:40:54;14.63;;;13.15;;
10947;SDS011;5526;42.070;24.752;2022-12-18T03:43:33;14.88;;;13.38;;
10947;SDS011;5526;42.070;24.752;2022-12-18T03:46:08;15.82;;;14.23;;
10947;SDS011;5526;42.070;24.752;2022-12-18T03:48:41;15.43;;;13.82;;
10947;SDS011;5526;42.070;24.752;2022-12-18T03:51:14;14.82;;;13.43;;
10947;SDS011;5526;42.070;24.752;2022-12-18T03:53:48;14.13;;;12.73;;
10947;SDS011;5526;42.070;24.752;2022-12-18T03:56:21;14.00;;;12.65;;
10947;SDS011;5526;42.070;24.752;2022-12-18T03:58:53;15.02;;;13.52;;
10947;SDS011;5526;42.070;24.752;2022-12-18T04:01:26;14.82;;;13.32;;
10947;SDS011;5526;42.070;24.752;2022-12-18T04:03:58;14.23;;;12.80;;
10947;SDS011;5526;42.070;24.752;2022-12-18T04:06:28;17.50;;;15.70;;
10947;SDS011;5526;42.070;24.752;2022-12-18T04:08:57;17.23;;;15.43;;
10947;SDS011;5526;42.070;24.752;2022-12-18T04:11:26;16.13;;;14.52;;
10947;SDS011;5526;42.070;24.752;2022-12-18T04:13:56;15.45;;;13.95;;
10947;SDS011;5526;42.070;24.752;2022-12-18T04:16:25;15.20;;;13.50;;
10947;SDS011;5526;42.070;24.752;2022-12-18T04:18:53;12.07;;;10.88;;
10947;SDS011;5526;42.070;24.752;2022-12-18T04:21:21;11.60;;;10.48;;
10947;SDS011;5526;42.070;24.752;2022-12-18T04:23:49;11.95;;;10.68;;
10947;SDS011;5526;42.070;24.752;2022-12-18T04:26:17;12.40;;;11.27;;
10947;SDS011;5526;42.070;24.752;2022-12-18T04:28:45;11.98;;;10.88;;
10947;SDS011;5526;42.070;24.752;2022-12-18T04:31:15;13.23;;;11.60;;
10947;SDS011;5526;42.070;24.752;2022-12-18T04:33:43;12.38;;;11.07;;
10947;SDS011;5526;42.070;24.752;2022-12-18T04:36:10;13.15;;;11.85;;
10947;SDS011;5526;42.070;24.752;2022-12-18T04:38:38;13.35;;;11.05;;
10947;SDS011;5526;42.070;24.752;2022-12-18T04:41:06;13.23;;;12.02;;
10947;SDS011;5526;42.070;24.752;2022-12-18T04:43:34;12.77;;;11.57;;
10947;SDS011;5526;42.070;24.752;2022-12-18T04:46:02;12.57;;;11.35;;
10947;SDS011;5526;42.070;24.752;2022-12-18T04:48:33;12.43;;;11.30;;
10947;SDS011;5526;42.070;24.752;2022-12-18T04:51:02;13.90;;;12.50;;
10947;SDS011;5526;42.070;24.752;2022-12-18T04:53:30;14.57;;;13.10;;
10947;SDS011;5526;42.070;24.752;2022-12-18T04:56:05;14.40;;;12.88;;
10947;SDS011;5526;42.070;24.752;2022-12-18T04:58:34;14.07;;;12.65;;
10947;SDS011;5526;42.070;24.752;2022-12-18T05:01:02;29.23;;;19.83;;
10947;SDS011;5526;42.070;24.752;2022-12-18T05:03:30;16.67;;;13.82;;
10947;SDS011;5526;42.070;24.752;2022-12-18T05:05:59;12.02;;;10.82;;
10947;SDS011;5526;42.070;24.752;2022-12-18T05:08:27;12.18;;;10.77;;
10947;SDS011;5526;42.070;24.752;2022-12-18T05:10:59;13.30;;;12.00;;
10947;SDS011;5526;42.070;24.752;2022-12-18T05:13:27;11.57;;;10.48;;
10947;SDS011;5526;42.070;24.752;2022-12-18T05:15:55;54.83;;;40.50;;
10947;SDS011;5526;42.070;24.752;2022-12-18T05:18:23;17.60;;;15.45;;
10947;SDS011;5526;42.070;24.752;2022-12-18T05:20:51;14.32;;;12.45;;
10947;SDS011;5526;42.070;24.752;2022-12-18T05:23:21;12.00;;;10.80;;
10947;SDS011;5526;42.070;24.752;2022-12-18T05:25:50;12.27;;;11.18;;
10947;SDS011;5526;42.070;24.752;2022-12-18T05:28:19;14.35;;;12.95;;
10947;SDS011;5526;42.070;24.752;2022-12-18T05:30:48;13.68;;;12.27;;
10947;SDS011;5526;42.070;24.752;2022-12-18T05:33:17;12.60;;;11.30;;
10947;SDS011;5526;42.070;24.752;2022-12-18T05:35:49;12.38;;;11.27;;
10947;SDS011;5526;42.070;24.752;2022-12-18T05:38:18;13.48;;;12.18;;
10947;SDS011;5526;42.070;24.752;2022-12-18T05:40:48;12.23;;;11.02;;
10947;SDS011;5526;42.070;24.752;2022-12-18T05:43:17;12.18;;;11.00;;
10947;SDS011;5526;42.070;24.752;2022-12-18T05:45:47;12.90;;;10.82;;
10947;SDS011;5526;42.070;24.752;2022-12-18T05:48:16;11.80;;;10.57;;
10947;SDS011;5526;42.070;24.752;2022-12-18T05:50:45;12.00;;;10.80;;
10947;SDS011;5526;42.070;24.752;2022-12-18T05:53:14;13.13;;;11.20;;
10947;SDS011;5526;42.070;24.752;2022-12-18T05:55:43;12.77;;;11.45;;
10947;SDS011;5526;42.070;24.752;2022-12-18T05:58:13;14.20;;;12.80;;
10947;SDS011;5526;42.070;24.752;2022-12-18T06:00:42;14.75;;;13.27;;
10947;SDS011;5526;42.070;24.752;2022-12-18T06:03:11;13.88;;;12.48;;
10947;SDS011;5526;42.070;24.752;2022-12-18T06:05:40;13.55;;;12.15;;
10947;SDS011;5526;42.070;24.752;2022-12-18T06:08:09;13.27;;;11.55;;
10947;SDS011;5526;42.070;24.752;2022-12-18T06:10:38;14.23;;;12.57;;
10947;SDS011;5526;42.070;24.752;2022-12-18T06:13:06;12.48;;;11.27;;
10947;SDS011;5526;42.070;24.752;2022-12-18T06:15:44;11.90;;;10.80;;
10947;SDS011;5526;42.070;24.752;2022-12-18T06:18:12;10.52;;;9.50;;
10947;SDS011;5526;42.070;24.752;2022-12-18T06:20:40;9.00;;;8.02;;
10947;SDS011;5526;42.070;24.752;2022-12-18T06:23:08;8.60;;;7.70;;
10947;SDS011;5526;42.070;24.752;2022-12-18T06:25:37;9.43;;;8.38;;
10947;SDS011;5526;42.070;24.752;2022-12-18T06:28:05;7.65;;;6.82;;
10947;SDS011;5526;42.070;24.752;2022-12-18T06:30:33;5.85;;;5.22;;
10947;SDS011;5526;42.070;24.752;2022-12-18T06:33:03;4.93;;;4.43;;
10947;SDS011;5526;42.070;24.752;2022-12-18T06:35:32;4.78;;;4.38;;
10947;SDS011;5526;42.070;24.752;2022-12-18T06:38:00;3.90;;;3.60;;
10947;SDS011;5526;42.070;24.752;2022-12-18T06:40:29;3.90;;;3.60;;
10947;SDS011;5526;42.070;24.752;2022-12-18T06:42:57;6.47;;;4.38;;
10947;SDS011;5526;42.070;24.752;2022-12-18T06:45:25;4.22;;;3.85;;
10947;SDS011;5526;42.070;24.752;2022-12-18T06:47:53;4.53;;;4.13;;
10947;SDS011;5526;42.070;24.752;2022-12-18T06:50:22;4.30;;;3.90;;
10947;SDS011;5526;42.070;24.752;2022-12-18T06:52:50;3.80;;;3.50;;
10947;SDS011;5526;42.070;24.752;2022-12-18T06:55:18;4.25;;;3.92;;
10947;SDS011;5526;42.070;24.752;2022-12-18T06:57:46;4.00;;;3.70;;
10947;SDS011;5526;42.070;24.752;2022-12-18T07:00:14;4.18;;;3.35;;
10947;SDS011;5526;42.070;24.752;2022-12-18T07:02:42;4.13;;;3.72;;
10947;SDS011;5526;42.070;24.752;2022-12-18T07:05:10;4.97;;;4.28;;
10947;SDS011;5526;42.070;24.752;2022-12-18T07:07:39;5.15;;;4.65;;
10947;SDS011;5526;42.070;24.752;2022-12-18T07:10:07;4.60;;;4.15;;
10947;SDS011;5526;42.070;24.752;2022-12-18T07:12:36;4.20;;;3.78;;
10947;SDS011;5526;42.070;24.752;2022-12-18T07:15:04;4.38;;;3.95;;
10947;SDS011;5526;42.070;24.752;2022-12-18T07:17:33;4.82;;;4.43;;
10947;SDS011;5526;42.070;24.752;2022-12-18T07:20:01;5.65;;;4.13;;
10947;SDS011;5526;42.070;24.752;2022-12-18T07:22:29;6.60;;;4.70;;
10947;SDS011;5526;42.070;24.752;2022-12-18T07:24:58;4.72;;;4.15;;
10947;SDS011;5526;42.070;24.752;2022-12-18T07:27:26;4.68;;;4.28;;
10947;SDS011;5526;42.070;24.752;2022-12-18T07:29:54;4.65;;;4.25;;
10947;SDS011;5526;42.070;24.752;2022-12-18T07:32:22;5.30;;;4.78;;
10947;SDS011;5526;42.070;24.752;2022-12-18T07:34:50;5.22;;;4.72;;
10947;SDS011;5526;42.070;24.752;2022-12-18T07:37:18;5.05;;;4.65;;
10947;SDS011;5526;42.070;24.752;2022-12-18T07:39:46;5.20;;;4.70;;
10947;SDS011;5526;42.070;24.752;2022-12-18T07:42:16;5.90;;;5.30;;
10947;SDS011;5526;42.070;24.752;2022-12-18T07:44:59;5.55;;;4.85;;
10947;SDS011;5526;42.070;24.752;2022-12-18T07:47:27;5.82;;;5.25;;
10947;SDS011;5526;42.070;24.752;2022-12-18T07:49:55;5.78;;;5.28;;
10947;SDS011;5526;42.070;24.752;2022-12-18T07:52:23;6.40;;;5.70;;
10947;SDS011;5526;42.070;24.752;2022-12-18T07:54:50;6.95;;;5.65;;
10947;SDS011;5526;42.070;24.752;2022-12-18T07:57:20;7.50;;;6.80;;
10947;SDS011;5526;42.070;24.752;2022-12-18T07:59:48;5.72;;;5.22;;
10947;SDS011;5526;42.070;24.752;2022-12-18T08:02:16;5.50;;;5.00;;
10947;SDS011;5526;42.070;24.752;2022-12-18T08:04:44;4.63;;;4.15;;
10947;SDS011;5526;42.070;24.752;2022-12-18T08:07:12;3.10;;;2.90;;
10947;SDS011;5526;42.070;24.752;2022-12-18T08:09:40;4.40;;;3.55;;
10947;SDS011;5526;42.070;24.752;2022-12-18T08:12:08;3.60;;;3.30;;
10947;SDS011;5526;42.070;24.752;2022-12-18T08:14:37;3.38;;;3.15;;
10947;SDS011;5526;42.070;24.752;2022-12-18T08:17:05;5.35;;;3.88;;
10947;SDS011;5526;42.070;24.752;2022-12-18T08:19:33;3.95;;;3.65;;
10947;SDS011;5526;42.070;24.752;2022-12-18T08:22:01;3.85;;;3.55;;
10947;SDS011;5526;42.070;24.752;2022-12-18T08:24:29;4.13;;;3.58;;
10947;SDS011;5526;42.070;24.752;2022-12-18T08:26:56;6.10;;;5.45;;
10947;SDS011;5526;42.070;24.752;2022-12-18T08:29:24;5.70;;;4.97;;
10947;SDS011;5526;42.070;24.752;2022-12-18T08:31:54;5.80;;;5.30;;
10947;SDS011;5526;42.070;24.752;2022-12-18T08:34:21;5.60;;;5.10;;
10947;SDS011;5526;42.070;24.752;2022-12-18T08:36:49;4.82;;;4.43;;
10947;SDS011;5526;42.070;24.752;2022-12-18T08:39:17;4.95;;;4.45;;
10947;SDS011;5526;42.070;24.752;2022-12-18T08:41:45;6.13;;;5.53;;
10947;SDS011;5526;42.070;24.752;2022-12-18T08:44:33;6.18;;;5.07;;
10947;SDS011;5526;42.070;24.752;2022-12-18T08:47:08;5.30;;;4.18;;
10947;SDS011;5526;42.070;24.752;2022-12-18T08:49:35;5.60;;;5.10;;
10947;SDS011;5526;42.070;24.752;2022-12-18T08:52:03;5.13;;;4.53;;
10947;SDS011;5526;42.070;24.752;2022-12-18T08:54:31;6.80;;;5.00;;
10947;SDS011;5526;42.070;24.752;2022-12-18T08:56:59;6.05;;;5.43;;
10947;SDS011;5526;42.070;24.752;2022-12-18T08:59:27;4.70;;;4.22;;
10947;SDS011;5526;42.070;24.752;2022-12-18T09:01:55;4.97;;;4.50;;
10947;SDS011;5526;42.070;24.752;2022-12-18T09:04:25;5.28;;;4.78;;
10947;SDS011;5526;42.070;24.752;2022-12-18T09:06:52;5.30;;;4.82;;
10947;SDS011;5526;42.070;24.752;2022-12-18T09:09:20;5.72;;;5.22;;
10947;SDS011;5526;42.070;24.752;2022-12-18T09:11:48;7.63;;;5.28;;
10947;SDS011;5526;42.070;24.752;2022-12-18T09:14:16;7.05;;;4.68;;
10947;SDS011;5526;42.070;24.752;2022-12-18T09:16:44;5.10;;;4.70;;
10947;SDS011;5526;42.070;24.752;2022-12-18T09:19:12;5.85;;;5.15;;
10947;SDS011;5526;42.070;24.752;2022-12-18T09:21:42;5.30;;;4.82;;
10947;SDS011;5526;42.070;24.752;2022-12-18T09:24:10;4.85;;;4.43;;
10947;SDS011;5526;42.070;24.752;2022-12-18T09:26:40;4.57;;;4.10;;
10947;SDS011;5526;42.070;24.752;2022-12-18T09:29:07;7.78;;;6.97;;
10947;SDS011;5526;42.070;24.752;2022-12-18T09:31:35;5.70;;;4.40;;
10947;SDS011;5526;42.070;24.752;2022-12-18T09:34:05;5.10;;;4.60;;
10947;SDS011;5526;42.070;24.752;2022-12-18T09:36:32;4.80;;;4.13;;
10947;SDS011;5526;42.070;24.752;2022-12-18T09:39:02;6.05;;;4.80;;
10947;SDS011;5526;42.070;24.752;2022-12-18T09:41:37;5.90;;;5.20;;
10947;SDS011;5526;42.070;24.752;2022-12-18T09:44:11;9.43;;;6.10;;
10947;SDS011;5526;42.070;24.752;2022-12-18T09:46:46;4.75;;;4.35;;
10947;SDS011;5526;42.070;24.752;2022-12-18T09:49:18;4.15;;;3.85;;
10947;SDS011;5526;42.070;24.752;2022-12-18T09:51:51;4.50;;;4.10;;
10947;SDS011;5526;42.070;24.752;2022-12-18T09:54:26;5.97;;;5.40;;
10947;SDS011;5526;42.070;24.752;2022-12-18T09:56:59;7.28;;;6.57;;
10947;SDS011;5526;42.070;24.752;2022-12-18T09:59:29;7.32;;;6.63;;
10947;SDS011;5526;42.070;24.752;2022-12-18T10:02:05;6.47;;;5.25;;
10947;SDS011;5526;42.070;24.752;2022-12-18T10:04:44;5.45;;;4.95;;
10947;SDS011;5526;42.070;24.752;2022-12-18T10:07:28;5.93;;;5.32;;
10947;SDS011;5526;42.070;24.752;2022-12-18T10:10:11;6.53;;;5.63;;
10947;SDS011;5526;42.070;24.752;2022-12-18T10:12:52;5.80;;;5.20;;
10947;SDS011;5526;42.070;24.752;2022-12-18T10:15:29;5.18;;;4.70;;
10947;SDS011;5526;42.070;24.752;2022-12-18T10:18:02;5.75;;;5.20;;
10947;SDS011;5526;42.070;24.752;2022-12-18T10:20:42;6.95;;;6.13;;
10947;SDS011;5526;42.070;24.752;2022-12-18T10:23:15;5.88;;;5.38;;
10947;SDS011;5526;42.070;24.752;2022-12-18T10:25:53;6.43;;;5.82;;
10947;SDS011;5526;42.070;24.752;2022-12-18T10:28:26;7.88;;;6.38;;
10947;SDS011;5526;42.070;24.752;2022-12-18T10:31:05;6.68;;;5.97;;
10947;SDS011;5526;42.070;24.752;2022-12-18T10:33:33;5.68;;;5.10;;
10947;SDS011;5526;42.070;24.752;2022-12-18T10:36:02;7.30;;;5.93;;
10947;SDS011;5526;42.070;24.752;2022-12-18T10:38:31;5.35;;;4.88;;
10947;SDS011;5526;42.070;24.752;2022-12-18T10:41:02;4.57;;;4.20;;
10947;SDS011;5526;42.070;24.752;2022-12-18T10:43:37;6.60;;;5.43;;
10947;SDS011;5526;42.070;24.752;2022-12-18T10:46:12;5.90;;;5.30;;
10947;SDS011;5526;42.070;24.752;2022-12-18T10:48:53;9.80;;;8.15;;
10947;SDS011;5526;42.070;24.752;2022-12-18T10:51:23;7.47;;;6.72;;
10947;SDS011;5526;42.070;24.752;2022-12-18T10:53:55;6.32;;;5.75;;
10947;SDS011;5526;42.070;24.752;2022-12-18T10:56:27;6.30;;;5.70;;
10947;SDS011;5526;42.070;24.752;2022-12-18T10:58:58;5.95;;;5.35;;
10947;SDS011;5526;42.070;24.752;2022-12-18T11:01:28;6.82;;;6.20;;
10947;SDS011;5526;42.070;24.752;2022-12-18T11:04:15;6.50;;;5.90;;
10947;SDS011;5526;42.070;24.752;2022-12-18T11:06:58;6.80;;;6.13;;
10947;SDS011;5526;42.070;24.752;2022-12-18T11:09:27;5.70;;;5.20;;
10947;SDS011;5526;42.070;24.752;2022-12-18T11:11:59;6.53;;;5.93;;
10947;SDS011;5526;42.070;24.752;2022-12-18T11:14:29;7.63;;;6.28;;
10947;SDS011;5526;42.070;24.752;2022-12-18T11:17:00;6.18;;;5.60;;
10947;SDS011;5526;42.070;24.752;2022-12-18T11:19:32;5.05;;;4.65;;
10947;SDS011;5526;42.070;24.752;2022-12-18T11:22:03;5.65;;;5.15;;
10947;SDS011;5526;42.070;24.752;2022-12-18T11:24:51;5.93;;;5.32;;
10947;SDS011;5526;42.070;24.752;2022-12-18T11:27:23;6.15;;;5.60;;
10947;SDS011;5526;42.070;24.752;2022-12-18T11:29:51;6.85;;;6.15;;
10947;SDS011;5526;42.070;24.752;2022-12-18T11:32:30;7.90;;;7.10;;
10947;SDS011;5526;42.070;24.752;2022-12-18T11:35:03;9.55;;;8.15;;
10947;SDS011;5526;42.070;24.752;2022-12-18T11:37:39;10.00;;;9.00;;
10947;SDS011;5526;42.070;24.752;2022-12-18T11:40:14;10.48;;;9.48;;
10947;SDS011;5526;42.070;24.752;2022-12-18T11:42:48;10.32;;;9.25;;
10947;SDS011;5526;42.070;24.752;2022-12-18T11:45:24;12.88;;;10.77;;
10947;SDS011;5526;42.070;24.752;2022-12-18T11:48:01;12.27;;;11.02;;
10947;SDS011;5526;42.070;24.752;2022-12-18T11:50:34;13.07;;;11.68;;
10947;SDS011;5526;42.070;24.752;2022-12-18T11:53:13;13.48;;;11.95;;
10947;SDS011;5526;42.070;24.752;2022-12-18T11:55:43;14.38;;;12.63;;
10947;SDS011;5526;42.070;24.752;2022-12-18T11:58:23;16.02;;;14.48;;
10947;SDS011;5526;42.070;24.752;2022-12-18T12:01:03;12.43;;;10.48;;
10947;SDS011;5526;42.070;24.752;2022-12-18T12:03:48;10.60;;;9.50;;
10947;SDS011;5526;42.070;24.752;2022-12-18T12:06:28;17.73;;;14.13;;
10947;SDS011;5526;42.070;24.752;2022-12-18T12:09:08;23.05;;;16.33;;
10947;SDS011;5526;42.070;24.752;2022-12-18T12:11:45;22.67;;;16.10;;
10947;SDS011;5526;42.070;24.752;2022-12-18T12:14:29;16.38;;;13.73;;
10947;SDS011;5526;42.070;24.752;2022-12-18T12:17:06;9.80;;;8.80;;
10947;SDS011;5526;42.070;24.752;2022-12-18T12:19:42;8.55;;;7.75;;
10947;SDS011;5526;42.070;24.752;2022-12-18T12:22:18;9.15;;;8.27;;
10947;SDS011;5526;42.070;24.752;2022-12-18T12:24:57;15.55;;;13.93;;
10947;SDS011;5526;42.070;24.752;2022-12-18T12:27:36;9.43;;;8.52;;
10947;SDS011;5526;42.070;24.752;2022-12-18T12:30:15;9.25;;;7.88;;
10947;SDS011;5526;42.070;24.752;2022-12-18T12:32:52;8.25;;;7.45;;
10947;SDS011;5526;42.070;24.752;2022-12-18T12:35:36;8.10;;;7.30;;
10947;SDS011;5526;42.070;24.752;2022-12-18T12:38:12;7.93;;;7.22;;
10947;SDS011;5526;42.070;24.752;2022-12-18T12:40:43;9.48;;;8.45;;
10947;SDS011;5526;42.070;24.752;2022-12-18T12:43:27;9.60;;;8.70;;
10947;SDS011;5526;42.070;24.752;2022-12-18T12:46:02;9.40;;;8.50;;
10947;SDS011;5526;42.070;24.752;2022-12-18T12:48:34;8.98;;;8.07;;
10947;SDS011;5526;42.070;24.752;2022-12-18T12:51:11;9.68;;;8.38;;
10947;SDS011;5526;42.070;24.752;2022-12-18T12:53:42;9.73;;;8.40;;
10947;SDS011;5526;42.070;24.752;2022-12-18T12:56:13;9.23;;;8.20;;
10947;SDS011;5526;42.070;24.752;2022-12-18T12:58:46;10.43;;;8.20;;
10947;SDS011;5526;42.070;24.752;2022-12-18T13:01:27;8.95;;;8.05;;
10947;SDS011;5526;42.070;24.752;2022-12-18T13:04:07;9.65;;;8.55;;
10947;SDS011;5526;42.070;24.752;2022-12-18T13:06:43;11.23;;;8.48;;
10947;SDS011;5526;42.070;24.752;2022-12-18T13:09:17;11.13;;;9.52;;
10947;SDS011;5526;42.070;24.752;2022-12-18T13:11:45;10.70;;;9.38;;
10947;SDS011;5526;42.070;24.752;2022-12-18T13:14:31;12.95;;;10.57;;
10947;SDS011;5526;42.070;24.752;2022-12-18T13:17:22;14.38;;;12.60;;
10947;SDS011;5526;42.070;24.752;2022-12-18T13:20:03;16.00;;;14.38;;
10947;SDS011;5526;42.070;24.752;2022-12-18T13:22:37;15.07;;;13.57;;
10947;SDS011;5526;42.070;24.752;2022-12-18T13:30:48;15.20;;;13.60;;
10947;SDS011;5526;42.070;24.752;2022-12-18T13:36:26;15.70;;;14.10;;
10947;SDS011;5526;42.070;24.752;2022-12-18T13:39:09;17.55;;;15.65;;
10947;SDS011;5526;42.070;24.752;2022-12-18T13:41:48;15.32;;;13.73;;
10947;SDS011;5526;42.070;24.752;2022-12-18T13:44:30;15.80;;;14.20;;
10947;SDS011;5526;42.070;24.752;2022-12-18T13:47:02;12.20;;;10.73;;
10947;SDS011;5526;42.070;24.752;2022-12-18T13:49:36;10.70;;;9.45;;
10947;SDS011;5526;42.070;24.752;2022-12-18T13:52:15;12.15;;;11.05;;
10947;SDS011;5526;42.070;24.752;2022-12-18T13:54:47;13.40;;;11.95;;
10947;SDS011;5526;42.070;24.752;2022-12-18T13:57:27;15.23;;;13.45;;
10947;SDS011;5526;42.070;24.752;2022-12-18T13:59:56;13.98;;;12.48;;
10947;SDS011;5526;42.070;24.752;2022-12-18T14:02:39;14.50;;;12.88;;
10947;SDS011;5526;42.070;24.752;2022-12-18T14:05:22;15.52;;;13.82;;
10947;SDS011;5526;42.070;24.752;2022-12-18T14:07:51;15.48;;;13.57;;
10947;SDS011;5526;42.070;24.752;2022-12-18T14:10:20;13.73;;;12.43;;
10947;SDS011;5526;42.070;24.752;2022-12-18T14:12:49;15.25;;;13.65;;
10947;SDS011;5526;42.070;24.752;2022-12-18T14:15:25;13.30;;;11.90;;
10947;SDS011;5526;42.070;24.752;2022-12-18T14:17:59;14.00;;;12.60;;
10947;SDS011;5526;42.070;24.752;2022-12-18T14:20:31;17.70;;;15.88;;
10947;SDS011;5526;42.070;24.752;2022-12-18T14:23:00;18.95;;;15.57;;
10947;SDS011;5526;42.070;24.752;2022-12-18T14:25:28;17.95;;;16.05;;
10947;SDS011;5526;42.070;24.752;2022-12-18T14:28:02;19.23;;;17.35;;
10947;SDS011;5526;42.070;24.752;2022-12-18T14:30:39;19.38;;;17.25;;
10947;SDS011;5526;42.070;24.752;2022-12-18T14:33:09;23.85;;;21.13;;
10947;SDS011;5526;42.070;24.752;2022-12-18T14:35:40;19.40;;;17.00;;
10947;SDS011;5526;42.070;24.752;2022-12-18T14:38:10;17.95;;;16.10;;
10947;SDS011;5526;42.070;24.752;2022-12-18T14:40:45;16.98;;;15.32;;
10947;SDS011;5526;42.070;24.752;2022-12-18T14:43:13;21.00;;;17.45;;
10947;SDS011;5526;42.070;24.752;2022-12-18T14:45:41;18.70;;;16.70;;
10947;SDS011;5526;42.070;24.752;2022-12-18T14:48:13;19.05;;;17.05;;
10947;SDS011;5526;42.070;24.752;2022-12-18T14:50:45;17.48;;;15.70;;
10947;SDS011;5526;42.070;24.752;2022-12-18T14:53:23;20.33;;;18.23;;
10947;SDS011;5526;42.070;24.752;2022-12-18T14:56:01;19.38;;;17.38;;
10947;SDS011;5526;42.070;24.752;2022-12-18T14:58:49;24.15;;;18.67;;
10947;SDS011;5526;42.070;24.752;2022-12-18T15:01:23;23.05;;;19.20;;
10947;SDS011;5526;42.070;24.752;2022-12-18T15:03:54;21.65;;;19.08;;
10947;SDS011;5526;42.070;24.752;2022-12-18T15:06:26;21.73;;;19.48;;
10947;SDS011;5526;42.070;24.752;2022-12-18T15:08:57;20.55;;;18.45;;